Pioche, Nevada Weather observations

Data are for observation ending at time listed.
 Day   Time    Ave.   Ave.  Ave.  Vector   Max.   Stn.    Total    Solar   Ave.  
  of    of     Air    Rel.  Wind   Wind    Wind   Baro.  Precip.   Rad.    Soil  
Year   Day     Temp.  Hum.  Speed  Dir.    Gust   Pres.                    Temp. 
2014   (PST)    F      %     mph   deg.    mph     mb.     in.     W/m2     F   
------------------------------------------------------------------------------
 273   12:20   65.6    32    2.2    28      4.7   818.0    0.00     526    62.8
 273   12:30   64.8    32    1.3   229      4.8   817.9    0.00     236    62.9
 273   12:40   65.7    31    0.7    42      2.7   817.6    0.00     361    63.0
 273   12:50   66.0    30    1.1    16      3.2   817.5    0.00     367    63.1
 273   13:00   65.0    32    2.2    75      5.7   817.4    0.00     176    63.2
 273   13:10   64.3    32    1.6    69      4.1   817.3    0.00     197    63.4
 273   13:20   66.1    28    4.2   304     10.9   817.2    0.00     867    63.5
 273   13:30   66.7    24    7.9   287     13.2   817.1    0.00     746    63.6
 273   13:40   66.5    25    8.0   285     16.2   817.1    0.00     754    63.7
 273   13:50   66.3    27    8.2   285     17.0   817.0    0.00     709    63.8
 273   14:00   66.3    27    7.5   282     17.5   816.9    0.00     684    63.9
 273   14:10   66.1    27    6.2   268     15.3   816.9    0.00     623    64.0
 273   14:20   66.7    26    6.8   294     11.9   816.8    0.00     639    64.2
 273   14:30   66.5    28    7.0   278     13.0   816.8    0.00     595    64.2
 273   14:40   66.4    27    4.3   263      9.4   816.8    0.00     557    64.3
 273   14:50   66.5    27    4.9   260      9.4   816.7    0.00     487    64.4
 273   15:00   66.6    26    5.4   281     10.9   816.6    0.00     493    64.5
 273   15:10   66.5    28    5.5   282     11.5   816.6    0.00     456    64.6
 273   15:20   66.5    28    5.6   282     13.4   816.6    0.00     418    64.7
 273   15:30   66.5    28    4.2   269     10.4   816.5    0.00     388    64.8
 273   15:40   66.0    28    6.4   275     13.0   816.4    0.00     351    64.9
 273   15:50   65.9    28    4.6   274      8.1   816.4    0.00     314    65.0
 273   16:00   65.8    29    3.7   275      7.8   816.3    0.00     276    65.1
 273   16:10   65.8    29    3.3   258      6.7   816.3    0.00     240    65.2
 273   16:20   66.4    30    3.3   215      7.0   816.3    0.00     203    65.3
 273   16:30   66.1    28    3.9   271      7.9   816.3    0.00      75    65.4
 273   16:40   64.7    29    3.6   271      6.5   816.2    0.00      22    65.6
 273   16:50   63.1    32    2.3   258      5.4   816.2    0.00      13    65.7
 273   17:00   61.1    35    2.0   199      3.9   816.1    0.00      12    65.8
 273   17:10   60.6    36    2.1   198      4.2   816.1    0.00      11    65.9
 273   17:20   61.1    34    3.2   185      4.9   816.0    0.00       7    65.9
 273   17:30   61.8    33    3.4   176      5.1   816.0    0.00       3    66.0
 273   17:40   61.6    33    2.6   182      4.2   815.9    0.00       0    66.0
 273   17:50   60.3    35    2.1   188      3.2   815.9    0.00       0    66.1
 273   18:00   58.6    40    3.5   148      5.4   815.9    0.00       0    66.1
 273   18:10   57.3    44    4.9   143      5.7   815.8    0.00       0    66.2
 273   18:20   57.0    44    5.0   144      5.7   815.9    0.00       0    66.2
 273   18:30   56.7    44    4.7   142      5.4   815.8    0.00       0    66.2
 273   18:40   56.8    43    4.6   144      6.3   815.9    0.00       0    66.2
 273   18:50   57.4    40    5.4   141      8.6   815.9    0.00       0    66.2
 273   19:00   60.0    36    6.7   145     12.2   815.9    0.00       0    66.2
 273   19:10   59.8    37    6.2   142      9.8   815.9    0.00       0    66.1
 273   19:20   59.4    39    7.7   142     10.8   816.0    0.00       0    66.1
 273   19:30   59.2    40    8.0   145     12.9   816.0    0.00       0    66.1
 273   19:40   58.8    40    8.3   149     12.3   816.0    0.00       0    66.1
 273   19:50   58.1    42    7.3   148     11.7   816.0    0.00       0    66.1
 273   20:00   57.8    44    7.8   147     11.4   816.0    0.00       0    66.0
 273   20:10   57.6    45    6.8   151     10.8   816.0    0.00       0    66.0
 273   20:20   57.3    46    7.1   146     10.4   815.9    0.00       0    66.0
 273   20:30   56.8    47    7.2   149     12.1   815.9    0.00       0    65.9
 273   20:40   56.6    48    6.0   149      9.1   816.0    0.00       0    65.9
 273   20:50   57.2    46    6.0   156      9.1   815.9    0.00       0    65.8
 273   21:00   57.4    45    6.7   163     11.6   815.9    0.00       0    65.8
 273   21:10   57.3    45    6.3   167     11.8   815.9    0.00       0    65.8
 273   21:20   57.5    44    6.5   169     12.2   816.0    0.00       0    65.7
 273   21:30   57.9    42    4.8   179      9.1   816.0    0.00       0    65.7
 273   21:40   58.6    40    5.3   184     10.4   816.0    0.00       0    65.6
 273   21:50   56.9    47    3.4   295      6.9   816.0    0.00       0    65.6
 273   22:00   52.5    58    1.6   299      5.5   816.0    0.00       0    65.5
 273   22:10   51.7    59    1.2   174      3.7   816.0    0.00       0    65.5
 273   22:20   51.7    59    1.1   318      3.0   815.9    0.00       0    65.5
 273   22:30   51.9    59    2.5   325      6.4   815.9    0.00       0    65.4
 273   22:40   51.3    60    1.5   296      3.2   815.9    0.00       0    65.3
 273   22:50   50.6    61    3.2   283      6.1   816.0    0.00       0    65.3
 273   23:00   50.7    60    4.8   277      9.1   816.0    0.00       0    65.2
 273   23:10   51.4    59    4.0   271      7.2   816.1    0.00       0    65.2
 273   23:20   51.6    58    4.8   283      7.5   816.1    0.00       0    65.1
 273   23:30   51.5    59    5.8   278      9.1   816.2    0.00       0    65.1
 273   23:40   51.5    59    5.4   274      8.5   816.4    0.00       0    65.0
 273   23:50   51.5    59    6.6   278     11.9   816.5    0.00       0    65.0
 274    0:00   51.2    61    6.2   275      9.9   816.6    0.00       0    64.9
 274    0:10   51.2    61    6.9   286     14.8   816.8    0.00       0    64.9
 274    0:20   50.9    62    6.3   278     12.0   816.8    0.00       0    64.8
 274    0:30   50.7    64    7.2   274     11.5   816.8    0.00       0    64.8
 274    0:40   50.4    67    7.2   276     11.3   816.8    0.00       0    64.7
 274    0:50   50.3    69    7.5   275     12.6   816.8    0.00       0    64.6
 274    1:00   50.5    68    8.7   273     14.4   816.8    0.00       0    64.6
 274    1:10   50.7    67    8.3   275     13.2   816.8    0.00       0    64.5
 274    1:20   50.6    67    8.0   272     12.7   816.9    0.00       0    64.5
 274    1:30   50.8    66    6.5   265     11.9   816.7    0.00       0    64.4
 274    1:40   50.9    66    6.7   271     11.5   816.7    0.00       0    64.3
 274    1:50   51.0    64    5.5   272     10.1   816.7    0.00       0    64.3
 274    2:00   51.4    62    5.0   271      9.0   816.7    0.00       0    64.2
 274    2:10   51.9    60    6.7   275     11.2   816.8    0.00       0    64.1
 274    2:20   52.2    59    7.1   274     11.5   816.8    0.00       0    64.1
 274    2:30   52.1    60    7.5   294     12.7   816.8    0.00       0    64.0
 274    2:40   51.3    63    8.2   301     16.3   816.8    0.00       0    64.0
 274    2:50   50.8    65    7.9   293     15.2   817.0    0.00       0    63.9
 274    3:00   50.5    68   10.0   305     16.1   817.0    0.00       0    63.9
 274    3:10   50.1    71    8.2   293     12.1   817.0    0.00       0    63.8
 274    3:20   49.7    74    6.8   286     11.5   817.1    0.00       0    63.8
 274    3:30   49.3    75    8.8   285     17.0   817.2    0.00       0    63.8
 274    3:40   48.8    76    7.9   286     13.3   817.3    0.00       0    63.7
 274    3:50   48.7    76    8.1   290     12.9   817.3    0.00       0    63.6
 274    4:00   48.5    76    7.9   282     12.7   817.5    0.00       0    63.6
 274    4:10   48.5    75    8.1   279     12.3   817.5    0.00       0    63.6
 274    4:20   48.4    74    9.3   280     15.3   817.5    0.00       0    63.5
 274    4:30   48.4    73    9.8   281     17.2   817.6    0.00       0    63.5
 274    4:40   48.4    73   10.0   284     16.4   817.7    0.00       0    63.4
 274    4:50   48.2    72    9.8   289     14.5   817.8    0.00       0    63.3
 274    5:00   48.0    70   10.5   287     18.0   817.9    0.00       0    63.3
 274    5:10   47.5    70    9.9   290     16.4   818.1    0.00       0    63.2
 274    5:20   47.0    70    9.2   286     14.6   818.3    0.00       0    63.2
 274    5:30   46.4    71    8.2   288     13.4   818.6    0.00       0    63.1
 274    5:40   46.2    71    8.4   283     13.4   818.7    0.00       4    63.1
 274    5:50   45.9    71    9.4   282     14.7   818.7    0.00       9    63.0
 274    6:00   45.6    71    8.0   278     13.3   818.8    0.00      13    63.0
 274    6:10   45.5    70    8.1   278     12.2   819.0    0.00      35    62.9
 274    6:20   46.5    68    8.4   281     12.8   819.1    0.00     112    62.9
 274    6:30   47.4    66    9.7   282     15.1   819.1    0.00     154    62.8
 274    6:40   48.0    64   10.3   289     17.1   819.2    0.00     191    62.7
 274    6:50   48.6    63   10.2   295     16.0   819.4    0.00     228    62.7
 274    7:00   49.0    62    8.8   297     16.0   819.5    0.00     267    62.6
 274    7:10   49.3    61   10.1   294     18.0   819.6    0.00     307    62.6
 274    7:20   49.4    61   10.6   294     15.8   819.7    0.00     275    62.5
 274    7:30   50.0    59   10.1   292     17.2   819.8    0.00     381    62.5
 274    7:40   50.0    58   11.2   294     17.5   819.9    0.00     417    62.4
 274    7:50   50.2    57   11.5   302     18.0   820.0    0.00     453    62.3
 274    8:00   50.4    56   11.7   301     18.9   820.0    0.00     488    62.3
 274    8:10   50.8    54   11.1   304     17.9   820.0    0.00     522    62.2
 274    8:20   51.1    52   12.5   306     19.4   820.0    0.00     555    62.2
 274    8:30   52.2    49    9.9   310     17.5   820.0    0.00     585    62.1
 274    8:40   52.3    50   11.6   302     17.8   820.1    0.00     612    62.1
 274    8:50   52.7    48   11.2   302     18.0   820.2    0.00     642    62.1
 274    9:00   53.0    40   10.9   307     17.2   820.4    0.00     673    62.0
 274    9:10   53.3    36   13.0   310     18.7   820.4    0.00     701    62.0
 274    9:20   53.8    36   12.1   304     17.9   820.5    0.00     727    61.9
 274    9:30   53.9    35   11.8   301     18.3   820.6    0.00     750    61.9
 274    9:40   54.2    34   11.8   306     17.2   820.6    0.00     770    61.9
 274    9:50   54.5    34   11.3   299     19.8   820.7    0.00     787    61.8
 274   10:00   54.3    34   11.5   303     17.7   820.7    0.00     803    61.8
 274   10:10   54.9    34   12.1   301     18.9   820.7    0.00     818    61.8
 274   10:20   55.2    34   11.3   297     17.8   820.7    0.00     833    61.8
 274   10:30   55.5    32   11.4   299     17.8   820.6    0.00     847    61.8
 274   10:40   54.9    34   10.2   289     17.3   820.6    0.00     857    61.8
 274   10:50   55.4    35   11.2   302     18.1   820.6    0.00     863    61.8
 274   11:00   55.8    33   11.2   300     18.1   820.6    0.00     868    61.8
 274   11:10   56.3    31   10.4   302     17.0   820.6    0.00     872    61.8
 274   11:20   56.4    32   11.1   303     19.3   820.7    0.00     872    61.8
 274   11:30   56.1    32   10.2   303     18.6   820.7    0.00     872    61.8
 274   11:40   56.5    31   12.4   306     21.0   820.6    0.00     872    61.8
 274   11:50   56.4    31   12.2   306     20.0   820.5    0.00     872    61.9
 274   12:00   56.7    31   11.2   302     16.3   820.4    0.00     868    62.0
 274   12:10   57.3    29   11.3   312     23.9   820.3    0.00     865    62.0

Return to Pioche, Nevada graphs page.


Western Regional Climate Center,wrcc@dri.edu